sensor_id;sensor_type;location;lat;lon;timestamp;P1;durP1;ratioP1;P2;durP2;ratioP2
46391;SDS011;32098;49.448;7.904;2022-07-26T00:02:19;2.05;;;1.50;;
46391;SDS011;32098;49.448;7.904;2022-07-26T00:04:46;3.25;;;1.65;;
46391;SDS011;32098;49.448;7.904;2022-07-26T00:07:13;2.33;;;1.70;;
46391;SDS011;32098;49.448;7.904;2022-07-26T00:09:39;2.20;;;1.58;;
46391;SDS011;32098;49.448;7.904;2022-07-26T00:12:13;2.40;;;1.50;;
46391;SDS011;32098;49.448;7.904;2022-07-26T00:14:39;2.88;;;1.60;;
46391;SDS011;32098;49.448;7.904;2022-07-26T00:17:06;2.13;;;1.23;;
46391;SDS011;32098;49.448;7.904;2022-07-26T00:19:33;3.90;;;1.40;;
46391;SDS011;32098;49.448;7.904;2022-07-26T00:21:59;3.17;;;1.73;;
46391;SDS011;32098;49.448;7.904;2022-07-26T00:24:44;2.78;;;1.65;;
46391;SDS011;32098;49.448;7.904;2022-07-26T00:27:11;2.47;;;1.58;;
46391;SDS011;32098;49.448;7.904;2022-07-26T00:29:37;2.80;;;1.70;;
46391;SDS011;32098;49.448;7.904;2022-07-26T00:32:04;1.98;;;1.63;;
46391;SDS011;32098;49.448;7.904;2022-07-26T00:34:31;3.13;;;1.67;;
46391;SDS011;32098;49.448;7.904;2022-07-26T00:36:57;4.95;;;1.70;;
46391;SDS011;32098;49.448;7.904;2022-07-26T00:39:24;2.25;;;1.50;;
46391;SDS011;32098;49.448;7.904;2022-07-26T00:41:50;3.95;;;1.75;;
46391;SDS011;32098;49.448;7.904;2022-07-26T00:44:17;3.72;;;1.40;;
46391;SDS011;32098;49.448;7.904;2022-07-26T00:46:43;3.13;;;1.80;;
46391;SDS011;32098;49.448;7.904;2022-07-26T00:49:10;3.80;;;1.90;;
46391;SDS011;32098;49.448;7.904;2022-07-26T00:51:38;3.13;;;1.55;;
46391;SDS011;32098;49.448;7.904;2022-07-26T00:54:04;6.13;;;2.03;;
46391;SDS011;32098;49.448;7.904;2022-07-26T00:56:32;3.60;;;1.83;;
46391;SDS011;32098;49.448;7.904;2022-07-26T00:58:59;1.60;;;1.50;;
46391;SDS011;32098;49.448;7.904;2022-07-26T01:01:26;3.10;;;1.75;;
46391;SDS011;32098;49.448;7.904;2022-07-26T01:03:53;5.38;;;2.08;;
46391;SDS011;32098;49.448;7.904;2022-07-26T01:06:19;3.25;;;1.67;;
46391;SDS011;32098;49.448;7.904;2022-07-26T01:08:52;2.15;;;1.55;;
46391;SDS011;32098;49.448;7.904;2022-07-26T01:11:19;4.32;;;1.83;;
46391;SDS011;32098;49.448;7.904;2022-07-26T01:13:46;3.22;;;2.25;;
46391;SDS011;32098;49.448;7.904;2022-07-26T01:16:13;2.88;;;1.52;;
46391;SDS011;32098;49.448;7.904;2022-07-26T01:18:40;4.60;;;2.00;;
46391;SDS011;32098;49.448;7.904;2022-07-26T01:21:07;2.58;;;1.75;;
46391;SDS011;32098;49.448;7.904;2022-07-26T01:23:39;3.20;;;1.83;;
46391;SDS011;32098;49.448;7.904;2022-07-26T01:26:07;2.58;;;1.75;;
46391;SDS011;32098;49.448;7.904;2022-07-26T01:28:37;2.28;;;1.65;;
46391;SDS011;32098;49.448;7.904;2022-07-26T01:31:05;4.22;;;1.88;;
46391;SDS011;32098;49.448;7.904;2022-07-26T01:33:33;3.88;;;1.60;;
46391;SDS011;32098;49.448;7.904;2022-07-26T01:36:00;2.83;;;1.90;;
46391;SDS011;32098;49.448;7.904;2022-07-26T01:38:27;3.05;;;1.80;;
46391;SDS011;32098;49.448;7.904;2022-07-26T01:40:53;2.53;;;1.50;;
46391;SDS011;32098;49.448;7.904;2022-07-26T01:43:20;3.08;;;1.90;;
46391;SDS011;32098;49.448;7.904;2022-07-26T01:45:46;3.70;;;1.98;;
46391;SDS011;32098;49.448;7.904;2022-07-26T01:48:13;2.78;;;1.80;;
46391;SDS011;32098;49.448;7.904;2022-07-26T01:50:40;2.55;;;1.70;;
46391;SDS011;32098;49.448;7.904;2022-07-26T01:53:06;2.97;;;1.90;;
46391;SDS011;32098;49.448;7.904;2022-07-26T01:55:33;3.33;;;1.58;;
46391;SDS011;32098;49.448;7.904;2022-07-26T01:58:01;4.32;;;2.10;;
46391;SDS011;32098;49.448;7.904;2022-07-26T02:00:28;4.38;;;1.70;;
46391;SDS011;32098;49.448;7.904;2022-07-26T02:02:55;2.25;;;2.05;;
46391;SDS011;32098;49.448;7.904;2022-07-26T02:05:21;2.10;;;1.90;;
46391;SDS011;32098;49.448;7.904;2022-07-26T02:07:48;2.45;;;1.70;;
46391;SDS011;32098;49.448;7.904;2022-07-26T02:10:15;3.10;;;1.88;;
46391;SDS011;32098;49.448;7.904;2022-07-26T02:12:42;3.47;;;2.00;;
46391;SDS011;32098;49.448;7.904;2022-07-26T02:15:09;2.85;;;1.70;;
46391;SDS011;32098;49.448;7.904;2022-07-26T02:17:37;4.10;;;2.05;;
46391;SDS011;32098;49.448;7.904;2022-07-26T02:20:03;3.22;;;1.92;;
46391;SDS011;32098;49.448;7.904;2022-07-26T02:22:30;2.33;;;1.88;;
46391;SDS011;32098;49.448;7.904;2022-07-26T02:24:57;3.30;;;1.90;;
46391;SDS011;32098;49.448;7.904;2022-07-26T02:27:30;4.10;;;2.13;;
46391;SDS011;32098;49.448;7.904;2022-07-26T02:29:57;3.17;;;2.00;;
46391;SDS011;32098;49.448;7.904;2022-07-26T02:32:23;3.88;;;1.70;;
46391;SDS011;32098;49.448;7.904;2022-07-26T02:34:49;2.78;;;2.10;;
46391;SDS011;32098;49.448;7.904;2022-07-26T02:37:16;5.03;;;1.95;;
46391;SDS011;32098;49.448;7.904;2022-07-26T02:39:42;3.92;;;2.13;;
46391;SDS011;32098;49.448;7.904;2022-07-26T02:42:09;3.80;;;2.03;;
46391;SDS011;32098;49.448;7.904;2022-07-26T02:44:35;3.10;;;1.88;;
46391;SDS011;32098;49.448;7.904;2022-07-26T02:47:02;3.10;;;1.85;;
46391;SDS011;32098;49.448;7.904;2022-07-26T02:49:29;2.67;;;2.03;;
46391;SDS011;32098;49.448;7.904;2022-07-26T02:51:56;3.40;;;1.95;;
46391;SDS011;32098;49.448;7.904;2022-07-26T02:54:22;3.85;;;2.00;;
46391;SDS011;32098;49.448;7.904;2022-07-26T02:56:49;4.20;;;2.08;;
46391;SDS011;32098;49.448;7.904;2022-07-26T02:59:15;3.50;;;2.45;;
46391;SDS011;32098;49.448;7.904;2022-07-26T03:01:42;3.50;;;1.80;;
46391;SDS011;32098;49.448;7.904;2022-07-26T03:04:09;5.72;;;2.50;;
46391;SDS011;32098;49.448;7.904;2022-07-26T03:06:36;4.65;;;2.33;;
46391;SDS011;32098;49.448;7.904;2022-07-26T03:09:02;3.78;;;2.15;;
46391;SDS011;32098;49.448;7.904;2022-07-26T03:11:29;4.05;;;2.30;;
46391;SDS011;32098;49.448;7.904;2022-07-26T03:13:56;3.53;;;2.03;;
46391;SDS011;32098;49.448;7.904;2022-07-26T03:16:22;3.03;;;2.28;;
46391;SDS011;32098;49.448;7.904;2022-07-26T03:18:54;3.70;;;2.50;;
46391;SDS011;32098;49.448;7.904;2022-07-26T03:21:21;5.18;;;2.35;;
46391;SDS011;32098;49.448;7.904;2022-07-26T03:23:47;3.30;;;1.95;;
46391;SDS011;32098;49.448;7.904;2022-07-26T03:26:14;3.67;;;2.30;;
46391;SDS011;32098;49.448;7.904;2022-07-26T03:28:40;2.95;;;2.50;;
46391;SDS011;32098;49.448;7.904;2022-07-26T03:31:07;3.03;;;2.13;;
46391;SDS011;32098;49.448;7.904;2022-07-26T03:33:34;4.20;;;2.00;;
46391;SDS011;32098;49.448;7.904;2022-07-26T03:36:00;2.72;;;2.15;;
46391;SDS011;32098;49.448;7.904;2022-07-26T03:38:27;2.38;;;1.98;;
46391;SDS011;32098;49.448;7.904;2022-07-26T03:40:53;5.88;;;2.20;;
46391;SDS011;32098;49.448;7.904;2022-07-26T03:43:20;4.00;;;2.20;;
46391;SDS011;32098;49.448;7.904;2022-07-26T03:45:49;3.85;;;2.13;;
46391;SDS011;32098;49.448;7.904;2022-07-26T03:48:19;5.65;;;2.17;;
46391;SDS011;32098;49.448;7.904;2022-07-26T03:50:46;2.28;;;2.08;;
46391;SDS011;32098;49.448;7.904;2022-07-26T03:53:13;2.63;;;2.40;;
46391;SDS011;32098;49.448;7.904;2022-07-26T03:55:39;2.95;;;2.35;;
46391;SDS011;32098;49.448;7.904;2022-07-26T03:58:32;3.63;;;2.38;;
46391;SDS011;32098;49.448;7.904;2022-07-26T04:00:58;4.13;;;2.40;;
46391;SDS011;32098;49.448;7.904;2022-07-26T04:03:25;3.03;;;2.20;;
46391;SDS011;32098;49.448;7.904;2022-07-26T04:05:52;2.67;;;2.10;;
46391;SDS011;32098;49.448;7.904;2022-07-26T04:08:21;4.38;;;2.28;;
46391;SDS011;32098;49.448;7.904;2022-07-26T04:10:47;3.88;;;2.10;;
46391;SDS011;32098;49.448;7.904;2022-07-26T04:13:17;4.72;;;1.60;;
46391;SDS011;32098;49.448;7.904;2022-07-26T04:15:44;3.42;;;2.00;;
46391;SDS011;32098;49.448;7.904;2022-07-26T04:18:10;4.38;;;2.00;;
46391;SDS011;32098;49.448;7.904;2022-07-26T04:20:39;3.13;;;2.10;;
46391;SDS011;32098;49.448;7.904;2022-07-26T04:23:06;3.35;;;1.98;;
46391;SDS011;32098;49.448;7.904;2022-07-26T04:25:37;2.97;;;2.17;;
46391;SDS011;32098;49.448;7.904;2022-07-26T04:28:06;3.97;;;2.20;;
46391;SDS011;32098;49.448;7.904;2022-07-26T04:30:34;2.42;;;1.80;;
46391;SDS011;32098;49.448;7.904;2022-07-26T04:33:01;3.35;;;1.55;;
46391;SDS011;32098;49.448;7.904;2022-07-26T04:35:27;2.63;;;1.40;;
46391;SDS011;32098;49.448;7.904;2022-07-26T04:37:54;3.08;;;1.70;;
46391;SDS011;32098;49.448;7.904;2022-07-26T04:40:20;4.10;;;1.30;;
46391;SDS011;32098;49.448;7.904;2022-07-26T04:42:49;2.72;;;1.73;;
46391;SDS011;32098;49.448;7.904;2022-07-26T04:45:16;2.75;;;1.30;;
46391;SDS011;32098;49.448;7.904;2022-07-26T04:47:43;5.15;;;1.13;;
46391;SDS011;32098;49.448;7.904;2022-07-26T04:50:14;5.28;;;1.50;;
46391;SDS011;32098;49.448;7.904;2022-07-26T04:52:41;3.55;;;1.20;;
46391;SDS011;32098;49.448;7.904;2022-07-26T04:55:09;3.05;;;1.33;;
46391;SDS011;32098;49.448;7.904;2022-07-26T04:57:36;2.42;;;1.00;;
46391;SDS011;32098;49.448;7.904;2022-07-26T05:00:06;2.83;;;1.30;;
46391;SDS011;32098;49.448;7.904;2022-07-26T05:02:48;3.55;;;1.02;;
46391;SDS011;32098;49.448;7.904;2022-07-26T05:05:20;3.10;;;1.00;;
46391;SDS011;32098;49.448;7.904;2022-07-26T05:07:48;3.58;;;1.30;;
46391;SDS011;32098;49.448;7.904;2022-07-26T05:10:17;3.10;;;1.20;;
46391;SDS011;32098;49.448;7.904;2022-07-26T05:12:45;3.53;;;1.65;;
46391;SDS011;32098;49.448;7.904;2022-07-26T05:15:12;3.20;;;1.25;;
46391;SDS011;32098;49.448;7.904;2022-07-26T05:17:41;1.48;;;0.95;;
46391;SDS011;32098;49.448;7.904;2022-07-26T05:20:10;5.28;;;1.08;;
46391;SDS011;32098;49.448;7.904;2022-07-26T05:22:39;3.25;;;1.10;;
46391;SDS011;32098;49.448;7.904;2022-07-26T05:25:05;4.30;;;1.17;;
46391;SDS011;32098;49.448;7.904;2022-07-26T05:27:33;3.17;;;1.10;;
46391;SDS011;32098;49.448;7.904;2022-07-26T05:29:59;1.45;;;0.90;;
46391;SDS011;32098;49.448;7.904;2022-07-26T05:32:26;3.50;;;1.02;;
46391;SDS011;32098;49.448;7.904;2022-07-26T05:34:55;4.55;;;1.10;;
46391;SDS011;32098;49.448;7.904;2022-07-26T05:37:22;1.73;;;0.90;;
46391;SDS011;32098;49.448;7.904;2022-07-26T05:39:48;3.63;;;1.00;;
46391;SDS011;32098;49.448;7.904;2022-07-26T05:42:15;3.08;;;1.00;;
46391;SDS011;32098;49.448;7.904;2022-07-26T05:44:41;4.60;;;1.15;;
46391;SDS011;32098;49.448;7.904;2022-07-26T05:47:09;2.00;;;0.73;;
46391;SDS011;32098;49.448;7.904;2022-07-26T05:49:36;2.15;;;1.02;;
46391;SDS011;32098;49.448;7.904;2022-07-26T05:52:06;3.45;;;0.73;;
46391;SDS011;32098;49.448;7.904;2022-07-26T05:54:33;2.00;;;0.77;;
46391;SDS011;32098;49.448;7.904;2022-07-26T05:57:00;2.75;;;1.20;;
46391;SDS011;32098;49.448;7.904;2022-07-26T05:59:26;4.25;;;0.88;;
46391;SDS011;32098;49.448;7.904;2022-07-26T06:01:53;2.13;;;1.13;;
46391;SDS011;32098;49.448;7.904;2022-07-26T06:04:23;4.63;;;0.93;;
46391;SDS011;32098;49.448;7.904;2022-07-26T06:06:52;2.60;;;0.60;;
46391;SDS011;32098;49.448;7.904;2022-07-26T06:09:20;4.18;;;0.90;;
46391;SDS011;32098;49.448;7.904;2022-07-26T06:11:47;1.75;;;0.80;;
46391;SDS011;32098;49.448;7.904;2022-07-26T06:14:14;2.15;;;1.33;;
46391;SDS011;32098;49.448;7.904;2022-07-26T06:16:40;2.92;;;1.08;;
46391;SDS011;32098;49.448;7.904;2022-07-26T06:19:07;7.10;;;1.33;;
46391;SDS011;32098;49.448;7.904;2022-07-26T06:21:33;2.83;;;0.88;;
46391;SDS011;32098;49.448;7.904;2022-07-26T06:24:00;3.25;;;1.00;;
46391;SDS011;32098;49.448;7.904;2022-07-26T06:26:26;1.30;;;0.77;;
46391;SDS011;32098;49.448;7.904;2022-07-26T06:28:53;4.32;;;0.85;;
46391;SDS011;32098;49.448;7.904;2022-07-26T06:31:19;3.95;;;1.10;;
46391;SDS011;32098;49.448;7.904;2022-07-26T06:33:46;3.13;;;1.10;;
46391;SDS011;32098;49.448;7.904;2022-07-26T06:36:13;1.58;;;0.90;;
46391;SDS011;32098;49.448;7.904;2022-07-26T06:38:39;1.98;;;0.90;;
46391;SDS011;32098;49.448;7.904;2022-07-26T06:41:06;3.20;;;0.80;;
46391;SDS011;32098;49.448;7.904;2022-07-26T06:43:32;1.42;;;0.70;;
46391;SDS011;32098;49.448;7.904;2022-07-26T06:45:59;2.15;;;0.60;;
46391;SDS011;32098;49.448;7.904;2022-07-26T06:48:26;1.45;;;0.88;;
46391;SDS011;32098;49.448;7.904;2022-07-26T06:50:54;2.95;;;0.73;;
46391;SDS011;32098;49.448;7.904;2022-07-26T06:53:20;2.17;;;0.82;;
46391;SDS011;32098;49.448;7.904;2022-07-26T06:55:47;3.00;;;0.93;;
46391;SDS011;32098;49.448;7.904;2022-07-26T06:58:13;1.77;;;0.70;;
46391;SDS011;32098;49.448;7.904;2022-07-26T07:00:40;3.92;;;0.98;;
46391;SDS011;32098;49.448;7.904;2022-07-26T07:03:07;3.45;;;1.05;;
46391;SDS011;32098;49.448;7.904;2022-07-26T07:05:33;2.38;;;0.90;;
46391;SDS011;32098;49.448;7.904;2022-07-26T07:08:00;2.03;;;0.80;;
46391;SDS011;32098;49.448;7.904;2022-07-26T07:10:27;3.35;;;0.80;;
46391;SDS011;32098;49.448;7.904;2022-07-26T07:12:54;2.28;;;0.68;;
46391;SDS011;32098;49.448;7.904;2022-07-26T07:15:21;2.97;;;1.00;;
46391;SDS011;32098;49.448;7.904;2022-07-26T07:17:47;4.25;;;0.95;;
46391;SDS011;32098;49.448;7.904;2022-07-26T07:20:14;2.50;;;0.80;;
46391;SDS011;32098;49.448;7.904;2022-07-26T07:22:41;2.60;;;1.10;;
46391;SDS011;32098;49.448;7.904;2022-07-26T07:25:07;0.65;;;0.60;;
46391;SDS011;32098;49.448;7.904;2022-07-26T07:27:34;1.58;;;0.80;;
46391;SDS011;32098;49.448;7.904;2022-07-26T07:30:01;3.25;;;0.80;;
46391;SDS011;32098;49.448;7.904;2022-07-26T07:32:29;2.38;;;0.70;;
46391;SDS011;32098;49.448;7.904;2022-07-26T07:34:56;4.00;;;1.15;;
46391;SDS011;32098;49.448;7.904;2022-07-26T07:37:22;2.67;;;0.88;;
46391;SDS011;32098;49.448;7.904;2022-07-26T07:39:49;1.98;;;0.80;;
46391;SDS011;32098;49.448;7.904;2022-07-26T07:42:17;3.15;;;0.88;;
46391;SDS011;32098;49.448;7.904;2022-07-26T07:44:44;1.45;;;0.63;;
46391;SDS011;32098;49.448;7.904;2022-07-26T07:47:11;1.92;;;0.95;;
46391;SDS011;32098;49.448;7.904;2022-07-26T07:49:37;3.60;;;1.00;;
46391;SDS011;32098;49.448;7.904;2022-07-26T07:52:04;2.65;;;0.85;;
46391;SDS011;32098;49.448;7.904;2022-07-26T07:54:31;1.40;;;0.68;;
46391;SDS011;32098;49.448;7.904;2022-07-26T07:56:58;2.17;;;0.60;;
46391;SDS011;32098;49.448;7.904;2022-07-26T07:59:24;1.63;;;1.00;;
46391;SDS011;32098;49.448;7.904;2022-07-26T08:01:51;3.03;;;1.05;;
46391;SDS011;32098;49.448;7.904;2022-07-26T08:04:17;2.45;;;1.00;;
46391;SDS011;32098;49.448;7.904;2022-07-26T08:06:44;1.60;;;1.05;;
46391;SDS011;32098;49.448;7.904;2022-07-26T08:09:16;2.90;;;1.00;;
46391;SDS011;32098;49.448;7.904;2022-07-26T08:11:43;3.05;;;0.80;;
46391;SDS011;32098;49.448;7.904;2022-07-26T08:14:09;2.42;;;1.10;;
46391;SDS011;32098;49.448;7.904;2022-07-26T08:16:38;1.77;;;0.90;;
46391;SDS011;32098;49.448;7.904;2022-07-26T08:19:05;1.67;;;0.80;;
46391;SDS011;32098;49.448;7.904;2022-07-26T08:21:33;1.67;;;1.05;;
46391;SDS011;32098;49.448;7.904;2022-07-26T08:24:00;1.98;;;0.88;;
46391;SDS011;32098;49.448;7.904;2022-07-26T08:26:27;1.80;;;0.75;;
46391;SDS011;32098;49.448;7.904;2022-07-26T08:28:54;3.17;;;1.10;;
46391;SDS011;32098;49.448;7.904;2022-07-26T08:31:35;1.42;;;0.73;;
46391;SDS011;32098;49.448;7.904;2022-07-26T08:34:02;3.63;;;1.00;;
46391;SDS011;32098;49.448;7.904;2022-07-26T08:36:28;1.52;;;0.88;;
46391;SDS011;32098;49.448;7.904;2022-07-26T08:38:58;2.55;;;0.60;;
46391;SDS011;32098;49.448;7.904;2022-07-26T08:41:26;2.47;;;0.88;;
46391;SDS011;32098;49.448;7.904;2022-07-26T08:43:53;1.60;;;0.80;;
46391;SDS011;32098;49.448;7.904;2022-07-26T08:46:21;2.42;;;0.93;;
46391;SDS011;32098;49.448;7.904;2022-07-26T08:48:52;1.63;;;0.70;;
46391;SDS011;32098;49.448;7.904;2022-07-26T08:51:19;2.42;;;1.17;;
46391;SDS011;32098;49.448;7.904;2022-07-26T08:53:49;2.58;;;0.80;;
46391;SDS011;32098;49.448;7.904;2022-07-26T08:56:19;1.48;;;0.70;;
46391;SDS011;32098;49.448;7.904;2022-07-26T08:58:45;3.38;;;1.10;;
46391;SDS011;32098;49.448;7.904;2022-07-26T09:01:12;4.60;;;1.08;;
46391;SDS011;32098;49.448;7.904;2022-07-26T09:03:40;2.97;;;1.08;;
46391;SDS011;32098;49.448;7.904;2022-07-26T09:06:12;3.08;;;0.88;;
46391;SDS011;32098;49.448;7.904;2022-07-26T09:08:39;2.80;;;0.70;;
46391;SDS011;32098;49.448;7.904;2022-07-26T09:14:04;1.25;;;0.80;;
46391;SDS011;32098;49.448;7.904;2022-07-26T09:16:31;2.05;;;0.98;;
46391;SDS011;32098;49.448;7.904;2022-07-26T09:19:18;2.95;;;0.98;;
46391;SDS011;32098;49.448;7.904;2022-07-26T09:21:48;1.10;;;0.77;;
46391;SDS011;32098;49.448;7.904;2022-07-26T09:24:28;4.85;;;0.88;;
46391;SDS011;32098;49.448;7.904;2022-07-26T09:26:58;2.65;;;0.90;;
46391;SDS011;32098;49.448;7.904;2022-07-26T09:29:26;1.10;;;0.73;;
46391;SDS011;32098;49.448;7.904;2022-07-26T09:32:07;3.05;;;1.13;;
46391;SDS011;32098;49.448;7.904;2022-07-26T09:34:37;3.15;;;0.80;;
46391;SDS011;32098;49.448;7.904;2022-07-26T09:37:17;2.38;;;0.93;;
46391;SDS011;32098;49.448;7.904;2022-07-26T09:39:58;2.50;;;1.10;;
46391;SDS011;32098;49.448;7.904;2022-07-26T09:42:26;1.58;;;0.77;;
46391;SDS011;32098;49.448;7.904;2022-07-26T09:44:55;0.88;;;0.65;;
46391;SDS011;32098;49.448;7.904;2022-07-26T09:47:35;2.00;;;0.98;;
46391;SDS011;32098;49.448;7.904;2022-07-26T09:50:10;2.75;;;0.77;;
46391;SDS011;32098;49.448;7.904;2022-07-26T09:52:39;2.47;;;0.98;;
46391;SDS011;32098;49.448;7.904;2022-07-26T09:55:06;2.22;;;1.40;;
46391;SDS011;32098;49.448;7.904;2022-07-26T09:57:34;2.30;;;1.13;;
46391;SDS011;32098;49.448;7.904;2022-07-26T10:00:02;1.58;;;0.80;;
46391;SDS011;32098;49.448;7.904;2022-07-26T10:02:33;1.35;;;1.02;;
46391;SDS011;32098;49.448;7.904;2022-07-26T10:04:59;2.80;;;1.25;;
46391;SDS011;32098;49.448;7.904;2022-07-26T10:07:29;1.77;;;1.05;;
46391;SDS011;32098;49.448;7.904;2022-07-26T10:10:18;1.70;;;1.02;;
46391;SDS011;32098;49.448;7.904;2022-07-26T10:13:05;2.20;;;0.90;;
46391;SDS011;32098;49.448;7.904;2022-07-26T10:15:34;1.83;;;1.02;;
46391;SDS011;32098;49.448;7.904;2022-07-26T10:18:04;2.60;;;1.08;;
46391;SDS011;32098;49.448;7.904;2022-07-26T10:20:38;1.20;;;0.90;;
46391;SDS011;32098;49.448;7.904;2022-07-26T10:25:57;2.45;;;0.98;;
46391;SDS011;32098;49.448;7.904;2022-07-26T10:28:26;3.70;;;1.13;;
46391;SDS011;32098;49.448;7.904;2022-07-26T10:33:47;2.70;;;1.10;;
46391;SDS011;32098;49.448;7.904;2022-07-26T10:36:34;2.25;;;1.20;;
46391;SDS011;32098;49.448;7.904;2022-07-26T10:39:10;3.03;;;0.98;;
46391;SDS011;32098;49.448;7.904;2022-07-26T10:41:46;1.55;;;1.00;;
46391;SDS011;32098;49.448;7.904;2022-07-26T10:44:26;2.20;;;1.00;;
46391;SDS011;32098;49.448;7.904;2022-07-26T10:46:59;1.60;;;0.90;;
46391;SDS011;32098;49.448;7.904;2022-07-26T10:49:29;3.75;;;1.00;;
46391;SDS011;32098;49.448;7.904;2022-07-26T10:52:06;1.20;;;0.77;;
46391;SDS011;32098;49.448;7.904;2022-07-26T10:59:59;1.95;;;0.95;;
46391;SDS011;32098;49.448;7.904;2022-07-26T11:02:30;2.92;;;0.85;;
46391;SDS011;32098;49.448;7.904;2022-07-26T11:04:59;1.50;;;0.80;;
46391;SDS011;32098;49.448;7.904;2022-07-26T11:07:27;2.55;;;1.05;;
46391;SDS011;32098;49.448;7.904;2022-07-26T11:09:57;2.38;;;0.80;;
46391;SDS011;32098;49.448;7.904;2022-07-26T11:12:25;1.80;;;1.05;;
46391;SDS011;32098;49.448;7.904;2022-07-26T11:14:52;5.45;;;0.90;;
46391;SDS011;32098;49.448;7.904;2022-07-26T11:17:28;2.05;;;1.00;;
46391;SDS011;32098;49.448;7.904;2022-07-26T11:19:56;1.50;;;0.80;;
46391;SDS011;32098;49.448;7.904;2022-07-26T11:22:32;1.23;;;0.80;;
46391;SDS011;32098;49.448;7.904;2022-07-26T11:25:00;1.98;;;0.90;;
46391;SDS011;32098;49.448;7.904;2022-07-26T11:27:28;1.92;;;1.00;;
46391;SDS011;32098;49.448;7.904;2022-07-26T11:30:01;1.23;;;0.85;;
46391;SDS011;32098;49.448;7.904;2022-07-26T11:32:30;3.75;;;0.80;;
46391;SDS011;32098;49.448;7.904;2022-07-26T11:34:58;1.15;;;0.90;;
46391;SDS011;32098;49.448;7.904;2022-07-26T11:37:26;4.03;;;0.90;;
46391;SDS011;32098;49.448;7.904;2022-07-26T11:39:52;2.00;;;0.80;;
46391;SDS011;32098;49.448;7.904;2022-07-26T11:42:19;2.53;;;0.93;;
46391;SDS011;32098;49.448;7.904;2022-07-26T11:44:47;2.33;;;0.80;;
46391;SDS011;32098;49.448;7.904;2022-07-26T11:47:15;1.58;;;0.85;;
46391;SDS011;32098;49.448;7.904;2022-07-26T11:49:51;4.43;;;0.80;;
46391;SDS011;32098;49.448;7.904;2022-07-26T11:52:38;1.77;;;0.90;;
46391;SDS011;32098;49.448;7.904;2022-07-26T11:55:05;1.35;;;0.93;;
46391;SDS011;32098;49.448;7.904;2022-07-26T11:57:32;1.45;;;0.88;;
46391;SDS011;32098;49.448;7.904;2022-07-26T11:59:59;3.25;;;1.00;;
46391;SDS011;32098;49.448;7.904;2022-07-26T12:02:36;1.73;;;0.90;;
46391;SDS011;32098;49.448;7.904;2022-07-26T12:05:13;1.90;;;1.08;;
46391;SDS011;32098;49.448;7.904;2022-07-26T12:07:58;2.10;;;0.73;;
46391;SDS011;32098;49.448;7.904;2022-07-26T12:10:28;1.52;;;0.85;;
46391;SDS011;32098;49.448;7.904;2022-07-26T12:15:47;2.20;;;0.80;;
46391;SDS011;32098;49.448;7.904;2022-07-26T12:20:59;1.63;;;0.75;;
46391;SDS011;32098;49.448;7.904;2022-07-26T12:23:39;2.47;;;0.90;;
46391;SDS011;32098;49.448;7.904;2022-07-26T12:26:20;2.03;;;0.90;;
46391;SDS011;32098;49.448;7.904;2022-07-26T12:28:51;3.65;;;1.15;;
46391;SDS011;32098;49.448;7.904;2022-07-26T12:31:29;1.58;;;0.80;;
46391;SDS011;32098;49.448;7.904;2022-07-26T12:33:57;2.70;;;0.98;;
46391;SDS011;32098;49.448;7.904;2022-07-26T12:36:24;3.42;;;1.15;;
46391;SDS011;32098;49.448;7.904;2022-07-26T12:38:54;1.27;;;0.85;;
46391;SDS011;32098;49.448;7.904;2022-07-26T12:41:32;4.82;;;0.90;;
46391;SDS011;32098;49.448;7.904;2022-07-26T12:44:00;1.40;;;0.90;;
46391;SDS011;32098;49.448;7.904;2022-07-26T12:46:30;3.97;;;1.00;;
46391;SDS011;32098;49.448;7.904;2022-07-26T12:48:57;1.75;;;0.98;;
46391;SDS011;32098;49.448;7.904;2022-07-26T12:51:26;2.38;;;1.00;;
46391;SDS011;32098;49.448;7.904;2022-07-26T12:53:52;1.23;;;0.70;;
46391;SDS011;32098;49.448;7.904;2022-07-26T12:56:19;2.10;;;0.98;;
46391;SDS011;32098;49.448;7.904;2022-07-26T12:58:46;2.83;;;1.17;;
46391;SDS011;32098;49.448;7.904;2022-07-26T13:01:13;1.40;;;0.82;;
46391;SDS011;32098;49.448;7.904;2022-07-26T13:03:39;2.05;;;0.90;;
46391;SDS011;32098;49.448;7.904;2022-07-26T13:06:06;2.13;;;1.00;;
46391;SDS011;32098;49.448;7.904;2022-07-26T13:08:33;2.03;;;0.90;;
46391;SDS011;32098;49.448;7.904;2022-07-26T13:10:59;8.90;;;0.90;;
46391;SDS011;32098;49.448;7.904;2022-07-26T13:13:26;1.52;;;0.73;;
46391;SDS011;32098;49.448;7.904;2022-07-26T13:15:52;1.55;;;0.80;;
46391;SDS011;32098;49.448;7.904;2022-07-26T13:18:19;1.85;;;0.88;;
46391;SDS011;32098;49.448;7.904;2022-07-26T13:20:46;1.13;;;0.85;;
46391;SDS011;32098;49.448;7.904;2022-07-26T13:23:12;2.10;;;0.93;;
46391;SDS011;32098;49.448;7.904;2022-07-26T13:25:47;1.42;;;0.95;;
46391;SDS011;32098;49.448;7.904;2022-07-26T13:28:15;0.70;;;0.70;;
46391;SDS011;32098;49.448;7.904;2022-07-26T13:30:42;1.73;;;0.80;;
46391;SDS011;32098;49.448;7.904;2022-07-26T13:33:09;1.42;;;0.70;;
46391;SDS011;32098;49.448;7.904;2022-07-26T13:35:36;0.70;;;0.70;;
46391;SDS011;32098;49.448;7.904;2022-07-26T13:38:07;1.48;;;0.80;;
46391;SDS011;32098;49.448;7.904;2022-07-26T13:40:34;3.78;;;1.10;;
46391;SDS011;32098;49.448;7.904;2022-07-26T13:43:01;1.52;;;0.95;;
46391;SDS011;32098;49.448;7.904;2022-07-26T13:45:28;2.80;;;1.00;;
46391;SDS011;32098;49.448;7.904;2022-07-26T13:47:58;1.50;;;1.05;;
46391;SDS011;32098;49.448;7.904;2022-07-26T13:50:25;2.20;;;0.88;;
46391;SDS011;32098;49.448;7.904;2022-07-26T13:52:53;4.78;;;1.08;;
46391;SDS011;32098;49.448;7.904;2022-07-26T13:55:21;3.78;;;0.98;;
46391;SDS011;32098;49.448;7.904;2022-07-26T13:57:48;4.07;;;1.00;;
46391;SDS011;32098;49.448;7.904;2022-07-26T14:00:23;2.50;;;1.10;;
46391;SDS011;32098;49.448;7.904;2022-07-26T14:02:52;0.88;;;0.82;;
46391;SDS011;32098;49.448;7.904;2022-07-26T14:05:20;1.13;;;0.90;;
46391;SDS011;32098;49.448;7.904;2022-07-26T14:07:46;2.00;;;0.80;;
46391;SDS011;32098;49.448;7.904;2022-07-26T14:10:13;1.75;;;0.80;;
46391;SDS011;32098;49.448;7.904;2022-07-26T14:12:39;2.67;;;1.13;;
46391;SDS011;32098;49.448;7.904;2022-07-26T14:15:06;2.92;;;1.05;;
46391;SDS011;32098;49.448;7.904;2022-07-26T14:17:46;4.88;;;1.10;;
46391;SDS011;32098;49.448;7.904;2022-07-26T14:20:13;1.13;;;1.02;;
46391;SDS011;32098;49.448;7.904;2022-07-26T14:22:41;1.75;;;0.88;;
46391;SDS011;32098;49.448;7.904;2022-07-26T14:25:08;2.58;;;0.80;;
46391;SDS011;32098;49.448;7.904;2022-07-26T14:27:35;2.20;;;0.95;;
46391;SDS011;32098;49.448;7.904;2022-07-26T14:30:02;3.15;;;1.20;;
46391;SDS011;32098;49.448;7.904;2022-07-26T14:32:29;1.20;;;0.88;;
46391;SDS011;32098;49.448;7.904;2022-07-26T14:34:56;2.90;;;1.05;;
46391;SDS011;32098;49.448;7.904;2022-07-26T14:37:22;3.45;;;1.15;;
46391;SDS011;32098;49.448;7.904;2022-07-26T14:40:09;1.27;;;1.00;;
46391;SDS011;32098;49.448;7.904;2022-07-26T14:42:37;1.25;;;0.82;;
46391;SDS011;32098;49.448;7.904;2022-07-26T14:45:04;3.42;;;1.15;;
46391;SDS011;32098;49.448;7.904;2022-07-26T14:47:31;3.40;;;0.77;;
46391;SDS011;32098;49.448;7.904;2022-07-26T14:49:58;2.88;;;0.90;;
46391;SDS011;32098;49.448;7.904;2022-07-26T14:52:31;3.30;;;0.70;;
46391;SDS011;32098;49.448;7.904;2022-07-26T14:54:58;2.67;;;1.02;;
46391;SDS011;32098;49.448;7.904;2022-07-26T14:57:24;1.55;;;1.25;;
46391;SDS011;32098;49.448;7.904;2022-07-26T14:59:51;1.70;;;1.00;;
46391;SDS011;32098;49.448;7.904;2022-07-26T15:02:18;2.38;;;0.95;;
46391;SDS011;32098;49.448;7.904;2022-07-26T15:04:45;3.65;;;0.95;;
46391;SDS011;32098;49.448;7.904;2022-07-26T15:07:11;1.83;;;0.90;;
46391;SDS011;32098;49.448;7.904;2022-07-26T15:09:38;2.60;;;1.00;;
46391;SDS011;32098;49.448;7.904;2022-07-26T15:12:05;1.23;;;0.90;;
46391;SDS011;32098;49.448;7.904;2022-07-26T15:14:31;2.35;;;1.00;;
46391;SDS011;32098;49.448;7.904;2022-07-26T15:16:58;1.38;;;0.90;;